createdAt,value
2022-12-12T00:00:21.417Z,97.87
2022-12-12T00:03:13.824Z,97.87
2022-12-12T00:06:06.392Z,98.00
2022-12-12T00:08:58.681Z,97.91
2022-12-12T00:11:50.960Z,98.00
2022-12-12T00:14:43.264Z,97.84
2022-12-12T00:17:35.697Z,97.92
2022-12-12T00:20:28.117Z,97.91
2022-12-12T00:23:20.401Z,97.84
2022-12-12T00:26:20.691Z,97.84
2022-12-12T00:29:13.677Z,97.78
2022-12-12T00:32:06.804Z,97.86
2022-12-12T00:34:59.082Z,97.83
2022-12-12T00:37:51.709Z,97.82
2022-12-12T00:40:43.598Z,97.75
2022-12-12T00:43:36.134Z,97.64
2022-12-12T00:46:28.975Z,97.53
2022-12-12T00:49:21.339Z,97.56
2022-12-12T00:52:14.047Z,97.64
2022-12-12T00:55:07.162Z,97.70
2022-12-12T00:57:59.440Z,97.70
2022-12-12T01:00:51.662Z,97.67
2022-12-12T01:03:44.818Z,97.64
2022-12-12T01:06:36.977Z,97.47
2022-12-12T01:09:29.181Z,97.33
2022-12-12T01:12:21.455Z,97.43
2022-12-12T01:15:15.633Z,97.36
2022-12-12T01:18:08.136Z,97.50
2022-12-12T01:21:01.051Z,97.35
2022-12-12T01:23:53.457Z,97.36
2022-12-12T01:26:45.624Z,97.48
2022-12-12T01:29:38.309Z,97.56
2022-12-12T01:32:31.257Z,97.47
2022-12-12T01:35:24.460Z,97.76
2022-12-12T01:38:16.683Z,97.79
2022-12-12T01:41:09.065Z,97.69
2022-12-12T01:44:04.819Z,97.70
2022-12-12T01:46:57.208Z,97.69
2022-12-12T01:49:52.474Z,97.74
2022-12-12T01:52:49.249Z,97.77
2022-12-12T01:55:41.435Z,97.80
2022-12-12T01:58:34.903Z,97.91
2022-12-12T02:01:27.752Z,98.03
2022-12-12T02:04:21.624Z,97.92
2022-12-12T02:07:13.943Z,97.96
2022-12-12T02:10:06.996Z,97.95
2022-12-12T02:13:04.591Z,97.83
2022-12-12T02:16:05.878Z,97.82
2022-12-12T02:19:06.682Z,97.89
2022-12-12T02:22:06.757Z,97.93
2022-12-12T02:25:33.004Z,98.03
2022-12-12T02:28:56.711Z,98.07
2022-12-12T02:31:53.876Z,98.05
2022-12-12T02:34:58.261Z,98.06
2022-12-12T02:38:00.164Z,98.15
2022-12-12T02:41:02.743Z,98.02
2022-12-12T02:44:07.271Z,97.85
2022-12-12T02:47:09.121Z,97.75
2022-12-12T02:50:05.705Z,97.63
2022-12-12T02:52:57.814Z,97.54
2022-12-12T02:55:50.496Z,97.68
2022-12-12T02:58:42.539Z,97.79
2022-12-12T03:01:45.515Z,97.49
2022-12-12T03:05:06.959Z,97.21
2022-12-12T03:08:07.398Z,96.88
2022-12-12T03:11:02.655Z,97.02
2022-12-12T03:14:00.207Z,97.05
2022-12-12T03:17:02.603Z,97.31
2022-12-12T03:20:01.557Z,97.43
2022-12-12T03:22:56.699Z,97.56
2022-12-12T03:25:55.760Z,97.64
2022-12-12T03:28:50.736Z,97.63
2022-12-12T03:31:48.146Z,97.69
2022-12-12T03:34:44.016Z,97.44
2022-12-12T03:37:40.621Z,97.42
2022-12-12T03:40:40.758Z,97.52
2022-12-12T03:43:37.829Z,97.58
2022-12-12T03:46:34.718Z,97.69
2022-12-12T03:49:31.177Z,97.66
2022-12-12T03:52:30.709Z,97.57
2022-12-12T03:55:29.162Z,97.37
2022-12-12T03:58:26.959Z,97.26
2022-12-12T04:01:21.905Z,97.44
2022-12-12T04:04:22.293Z,97.53
2022-12-12T04:07:16.160Z,97.84
2022-12-12T04:10:27.961Z,97.70
2022-12-12T04:13:41.977Z,97.71
2022-12-12T04:16:38.741Z,97.67
2022-12-12T04:19:53.962Z,97.74
2022-12-12T04:23:17.404Z,97.94
2022-12-12T04:26:36.880Z,97.55
2022-12-12T04:29:37.775Z,97.22
2022-12-12T04:32:35.212Z,97.24
2022-12-12T04:35:33.094Z,97.12
2022-12-12T04:38:26.962Z,97.31
2022-12-12T04:41:22.501Z,97.41
2022-12-12T04:44:17.616Z,97.24
2022-12-12T04:47:11.424Z,97.19
2022-12-12T04:50:04.951Z,97.13
2022-12-12T04:53:00.642Z,97.27
2022-12-12T04:55:58.333Z,97.44
2022-12-12T04:58:50.723Z,97.40
2022-12-12T05:01:53.345Z,97.50
2022-12-12T05:04:52.243Z,97.62
2022-12-12T05:07:50.728Z,97.87
2022-12-12T05:10:48.284Z,97.92
2022-12-12T05:13:42.585Z,97.80
2022-12-12T05:16:38.891Z,97.64
2022-12-12T05:19:31.002Z,97.60
2022-12-12T05:22:23.303Z,97.44
2022-12-12T05:25:16.115Z,97.29
2022-12-12T05:28:08.782Z,97.01
2022-12-12T05:31:01.159Z,96.96
2022-12-12T05:33:53.767Z,97.01
2022-12-12T05:36:45.885Z,97.13
2022-12-12T05:39:38.478Z,97.59
2022-12-12T05:42:30.997Z,97.56
2022-12-12T05:45:23.387Z,97.72
2022-12-12T05:48:19.566Z,97.96
2022-12-12T05:51:14.971Z,97.72
2022-12-12T05:54:07.428Z,97.79
2022-12-12T05:56:59.605Z,97.73
2022-12-12T05:59:51.799Z,97.60
2022-12-12T06:02:44.065Z,97.31
2022-12-12T06:05:36.396Z,97.40
2022-12-12T06:08:28.874Z,97.42
2022-12-12T06:11:21.789Z,97.47
2022-12-12T06:14:14.912Z,97.38
2022-12-12T06:17:07.236Z,97.31
2022-12-12T06:19:59.551Z,97.40
2022-12-12T06:22:53.909Z,97.63
2022-12-12T06:25:46.279Z,97.76
2022-12-12T06:28:39.253Z,97.63
2022-12-12T06:31:31.603Z,97.98
2022-12-12T06:34:23.931Z,98.19
2022-12-12T06:37:17.460Z,98.07
2022-12-12T06:40:12.676Z,97.74
2022-12-12T06:43:04.475Z,97.68
2022-12-12T06:46:04.273Z,97.59
2022-12-12T06:48:57.141Z,97.49
2022-12-12T06:51:49.579Z,97.54
2022-12-12T06:54:41.825Z,97.49
2022-12-12T06:57:34.100Z,97.16
2022-12-12T07:00:26.350Z,96.88
2022-12-12T07:03:18.815Z,97.15
2022-12-12T07:06:11.302Z,97.24
2022-12-12T07:09:04.045Z,97.05
2022-12-12T07:11:56.240Z,96.78
2022-12-12T07:14:48.427Z,96.68
2022-12-12T07:17:40.975Z,96.73
2022-12-12T07:20:33.292Z,96.61
2022-12-12T07:23:25.634Z,96.72
2022-12-12T07:26:20.127Z,96.78
2022-12-12T07:29:12.373Z,96.74
2022-12-12T07:32:04.596Z,96.75
2022-12-12T07:34:56.936Z,96.96
2022-12-12T07:37:49.251Z,96.95
2022-12-12T07:40:41.579Z,97.02
2022-12-12T07:43:36.227Z,97.10
2022-12-12T07:46:32.487Z,96.96
2022-12-12T07:49:24.867Z,96.95
2022-12-12T07:52:17.748Z,96.87
2022-12-12T07:55:11.373Z,96.91
2022-12-12T07:58:03.862Z,97.17
2022-12-12T08:00:56.140Z,97.39
2022-12-12T08:03:50.492Z,97.35
2022-12-12T08:06:42.892Z,96.95
2022-12-12T08:09:35.196Z,96.84
2022-12-12T08:12:29.685Z,96.75
2022-12-12T08:15:22.451Z,96.64
2022-12-12T08:18:14.643Z,96.69
2022-12-12T08:21:10.915Z,96.59
2022-12-12T08:24:03.992Z,96.57
2022-12-12T08:26:55.794Z,96.81
2022-12-12T08:29:48.174Z,96.92
2022-12-12T08:32:40.537Z,97.12
2022-12-12T08:35:33.703Z,96.81
2022-12-12T08:38:26.023Z,96.45
2022-12-12T08:41:19.281Z,95.98
2022-12-12T08:44:14.126Z,95.68
2022-12-12T08:47:06.549Z,95.48
2022-12-12T08:49:58.794Z,95.72
2022-12-12T08:52:51.437Z,96.02
2022-12-12T08:55:44.095Z,96.04
2022-12-12T08:58:36.412Z,96.16
2022-12-12T09:01:30.088Z,96.28
2022-12-12T09:04:22.393Z,96.39
2022-12-12T09:07:14.546Z,96.35
2022-12-12T09:10:07.923Z,96.36
2022-12-12T09:13:00.080Z,96.28
2022-12-12T09:15:55.273Z,96.02
2022-12-12T09:18:49.310Z,95.88
2022-12-12T09:21:41.861Z,96.05
2022-12-12T09:24:34.103Z,96.45
2022-12-12T09:27:26.412Z,96.73
2022-12-12T09:30:18.704Z,96.37
2022-12-12T09:33:11.030Z,95.83
2022-12-12T09:36:05.524Z,95.36
2022-12-12T09:38:57.345Z,94.95
2022-12-12T09:41:49.606Z,95.09
2022-12-12T09:44:42.205Z,95.12
2022-12-12T09:47:41.747Z,95.04
2022-12-12T09:50:37.001Z,94.92
2022-12-12T09:53:29.732Z,94.98
2022-12-12T09:56:29.894Z,95.51
2022-12-12T09:59:26.538Z,95.51
2022-12-12T10:02:51.742Z,94.72
2022-12-12T10:06:13.456Z,93.97
2022-12-12T10:09:17.595Z,93.89
2022-12-12T10:12:16.139Z,93.89
2022-12-12T10:15:22.168Z,93.70
2022-12-12T10:18:26.586Z,93.59
2022-12-12T10:21:23.813Z,93.63
2022-12-12T10:24:29.319Z,93.83
2022-12-12T10:27:24.495Z,94.06
2022-12-12T10:30:21.780Z,94.35
2022-12-12T10:33:26.203Z,94.32
2022-12-12T10:36:26.113Z,94.09
2022-12-12T10:39:28.175Z,93.70
2022-12-12T10:42:29.279Z,92.92
2022-12-12T10:45:38.660Z,92.62
2022-12-12T10:48:32.056Z,92.88
2022-12-12T10:51:27.674Z,93.08
2022-12-12T10:54:22.944Z,92.73
2022-12-12T10:57:21.026Z,92.76
2022-12-12T11:00:27.751Z,92.87
2022-12-12T11:03:30.807Z,92.90
2022-12-12T11:06:37.468Z,93.72
2022-12-12T11:09:30.575Z,93.02
2022-12-12T11:12:22.822Z,92.20
2022-12-12T11:15:19.882Z,92.12
2022-12-12T11:18:17.711Z,91.98
2022-12-12T11:21:12.939Z,92.04
2022-12-12T11:24:10.755Z,91.83
2022-12-12T11:27:04.760Z,91.95
2022-12-12T11:30:00.137Z,91.78
2022-12-12T11:32:54.554Z,92.05
2022-12-12T11:35:55.063Z,92.15
2022-12-12T11:38:52.899Z,91.99
2022-12-12T11:42:03.272Z,91.29
2022-12-12T11:45:04.914Z,90.93
2022-12-12T11:47:56.763Z,90.62
2022-12-12T11:50:49.154Z,90.90
2022-12-12T11:53:44.956Z,90.98
2022-12-12T11:56:44.852Z,90.95
2022-12-12T11:59:58.573Z,90.94
2022-12-12T12:03:16.412Z,91.13
2022-12-12T12:06:26.600Z,90.91
2022-12-12T12:09:27.685Z,90.43
2022-12-12T12:12:26.332Z,89.28
2022-12-12T12:15:32.281Z,88.92
2022-12-12T12:18:42.219Z,88.97
2022-12-12T12:21:46.574Z,88.77
2022-12-12T12:25:06.756Z,88.53
2022-12-12T12:28:09.937Z,88.29
2022-12-12T12:31:09.439Z,88.76
2022-12-12T12:34:12.990Z,88.75
2022-12-12T12:37:19.977Z,87.97
2022-12-12T12:40:24.391Z,87.66
2022-12-12T12:43:37.314Z,87.72
2022-12-12T12:46:41.113Z,87.15
2022-12-12T12:49:40.019Z,87.27
2022-12-12T12:52:37.734Z,87.63
2022-12-12T12:55:36.125Z,87.15
2022-12-12T12:58:32.904Z,87.11
2022-12-12T13:01:32.557Z,86.85
2022-12-12T13:04:29.687Z,86.94
2022-12-12T13:07:30.474Z,87.38
2022-12-12T13:10:28.966Z,87.53
2022-12-12T13:13:26.332Z,87.35
2022-12-12T13:16:21.217Z,87.15
2022-12-12T13:19:22.944Z,86.63
2022-12-12T13:22:20.464Z,86.62
2022-12-12T13:25:20.258Z,86.57
2022-12-12T13:28:17.137Z,85.96
2022-12-12T13:31:56.287Z,86.26
2022-12-12T13:34:53.238Z,86.59
2022-12-12T13:37:50.294Z,86.75
2022-12-12T13:40:44.406Z,87.50
2022-12-12T13:43:47.677Z,87.87
2022-12-12T13:46:41.947Z,87.76
2022-12-12T13:49:49.282Z,87.61
2022-12-12T13:52:44.064Z,87.76
2022-12-12T13:55:36.696Z,88.38
2022-12-12T13:58:38.027Z,88.05
2022-12-12T14:01:40.383Z,87.75
2022-12-12T14:04:34.879Z,87.97
2022-12-12T14:07:27.173Z,88.40
2022-12-12T14:10:28.697Z,88.51
2022-12-12T14:13:27.628Z,89.11
2022-12-12T14:16:26.982Z,89.34
2022-12-12T14:19:30.499Z,89.42
2022-12-12T14:22:52.256Z,89.68
2022-12-12T14:25:44.542Z,89.48
2022-12-12T14:28:36.948Z,89.41
2022-12-12T14:31:35.312Z,89.65
2022-12-12T14:34:34.778Z,89.91
2022-12-12T14:37:45.788Z,90.38
2022-12-12T14:40:45.885Z,90.94
2022-12-12T14:43:42.152Z,91.43
2022-12-12T14:46:34.411Z,91.91
2022-12-12T14:49:27.050Z,91.87
2022-12-12T14:52:24.645Z,91.22
2022-12-12T14:55:18.931Z,90.71
2022-12-12T14:58:11.186Z,90.81
2022-12-12T15:01:06.215Z,91.19
2022-12-12T15:03:59.184Z,91.94
2022-12-12T15:06:54.479Z,92.73
2022-12-12T15:09:50.969Z,93.31
2022-12-12T15:12:46.887Z,93.37
2022-12-12T15:15:39.460Z,93.48
2022-12-12T15:18:33.324Z,93.36
2022-12-12T15:21:26.490Z,93.10
2022-12-12T15:24:24.261Z,92.69
2022-12-12T15:27:24.129Z,92.75
2022-12-12T15:30:33.575Z,92.81
2022-12-12T15:33:28.005Z,92.97
2022-12-12T15:36:29.809Z,93.04
2022-12-12T15:39:22.278Z,92.76
2022-12-12T15:42:16.863Z,92.93
2022-12-12T15:45:17.233Z,92.84
2022-12-12T15:48:15.777Z,92.52
2022-12-12T15:51:09.195Z,92.49
2022-12-12T15:54:08.809Z,92.66
2022-12-12T15:57:00.976Z,93.09
2022-12-12T15:59:58.878Z,93.50
2022-12-12T16:03:03.221Z,94.02
2022-12-12T16:06:06.573Z,94.44
2022-12-12T16:09:08.970Z,94.75
2022-12-12T16:12:02.145Z,94.77
2022-12-12T16:14:54.348Z,94.86
2022-12-12T16:18:01.819Z,94.62
2022-12-12T16:20:56.046Z,94.11
2022-12-12T16:23:48.611Z,94.56
2022-12-12T16:26:40.846Z,94.73
2022-12-12T16:29:33.050Z,94.80
2022-12-12T16:32:26.374Z,94.91
2022-12-12T16:35:21.777Z,95.00
2022-12-12T16:38:17.545Z,95.21
2022-12-12T16:41:14.329Z,94.93
2022-12-12T16:44:06.641Z,94.54
2022-12-12T16:47:00.139Z,94.38
2022-12-12T16:49:53.282Z,94.67
2022-12-12T16:52:45.485Z,94.46
2022-12-12T16:55:40.891Z,94.69
2022-12-12T16:58:32.678Z,94.99
2022-12-12T17:01:25.047Z,94.88
2022-12-12T17:04:23.995Z,94.79
2022-12-12T17:07:16.233Z,94.73
2022-12-12T17:10:11.247Z,94.44
2022-12-12T17:13:07.949Z,94.44
2022-12-12T17:16:00.196Z,94.83
2022-12-12T17:18:52.347Z,95.22
2022-12-12T17:21:44.948Z,95.55
2022-12-12T17:24:37.173Z,95.86
2022-12-12T17:27:29.432Z,95.66
2022-12-12T17:30:22.198Z,95.48
2022-12-12T17:33:20.125Z,95.77
2022-12-12T17:36:13.746Z,95.89
2022-12-12T17:39:06.062Z,95.77
2022-12-12T17:41:58.246Z,95.54
2022-12-12T17:44:51.375Z,95.94
2022-12-12T17:47:43.508Z,96.34
2022-12-12T17:50:41.287Z,96.79
2022-12-12T17:53:38.281Z,97.07
2022-12-12T17:56:30.923Z,97.23
2022-12-12T17:59:23.412Z,97.06
2022-12-12T18:02:15.627Z,96.51
2022-12-12T18:05:09.948Z,95.99
2022-12-12T18:08:02.097Z,96.14
2022-12-12T18:10:54.471Z,96.53
2022-12-12T18:13:48.642Z,96.93
2022-12-12T18:16:40.643Z,97.07
2022-12-12T18:19:32.791Z,97.09
2022-12-12T18:22:24.923Z,96.93
2022-12-12T18:25:17.204Z,96.81
2022-12-12T18:28:10.831Z,96.70
2022-12-12T18:31:03.069Z,96.49
2022-12-12T18:33:58.643Z,96.66
2022-12-12T18:36:51.020Z,97.22
2022-12-12T18:39:57.008Z,97.74
2022-12-12T18:42:49.230Z,97.56
2022-12-12T18:45:43.715Z,97.31
2022-12-12T18:48:39.535Z,97.16
2022-12-12T18:51:32.299Z,96.93
2022-12-12T18:54:24.506Z,96.82
2022-12-12T18:57:16.811Z,96.61
2022-12-12T19:00:11.566Z,96.58
2022-12-12T19:03:05.641Z,96.81
2022-12-12T19:05:57.835Z,97.46
2022-12-12T19:08:50.455Z,97.82
2022-12-12T19:11:43.072Z,97.55
2022-12-12T19:14:52.722Z,97.32
2022-12-12T19:17:48.594Z,96.85
2022-12-12T19:20:40.918Z,96.70
2022-12-12T19:23:33.077Z,96.90
2022-12-12T19:26:28.611Z,96.90
2022-12-12T19:29:21.985Z,97.05
2022-12-12T19:32:14.120Z,97.38
2022-12-12T19:35:07.540Z,97.97
2022-12-12T19:37:59.380Z,98.12
2022-12-12T19:40:51.649Z,98.13
2022-12-12T19:43:44.809Z,97.84
2022-12-12T19:46:37.052Z,97.53
2022-12-12T19:49:29.275Z,97.23
2022-12-12T19:52:21.550Z,97.30
2022-12-12T19:55:13.882Z,97.57
2022-12-12T19:58:07.731Z,97.94
2022-12-12T20:01:04.218Z,97.69
2022-12-12T20:03:59.027Z,97.21
2022-12-12T20:06:52.231Z,97.10
2022-12-12T20:09:44.080Z,97.05
2022-12-12T20:12:36.326Z,97.05
2022-12-12T20:15:28.707Z,97.29
2022-12-12T20:18:20.916Z,97.62
2022-12-12T20:21:29.942Z,97.80
2022-12-12T20:24:29.116Z,98.12
2022-12-12T20:27:22.560Z,98.07
2022-12-12T20:30:15.561Z,97.93
2022-12-12T20:33:08.221Z,97.48
2022-12-12T20:36:04.975Z,97.00
2022-12-12T20:38:58.980Z,96.40
2022-12-12T20:41:53.850Z,96.26
2022-12-12T20:44:46.210Z,96.32
2022-12-12T20:47:38.410Z,96.57
2022-12-12T20:50:30.807Z,96.79
2022-12-12T20:53:23.707Z,96.70
2022-12-12T20:56:19.045Z,96.65
2022-12-12T20:59:11.441Z,96.75
2022-12-12T21:02:03.665Z,96.58
2022-12-12T21:04:56.566Z,96.53
2022-12-12T21:07:49.740Z,96.84
2022-12-12T21:10:42.033Z,96.89
2022-12-12T21:13:34.628Z,97.29
2022-12-12T21:16:28.249Z,97.63
2022-12-12T21:19:21.212Z,97.77
2022-12-12T21:22:13.352Z,97.83
2022-12-12T21:25:07.539Z,97.64
2022-12-12T21:28:00.055Z,97.07
2022-12-12T21:30:52.413Z,96.87
2022-12-12T21:33:45.035Z,96.90
2022-12-12T21:36:39.437Z,96.72
2022-12-12T21:39:31.986Z,96.83
2022-12-12T21:42:24.358Z,97.30
2022-12-12T21:45:17.566Z,97.41
2022-12-12T21:48:09.679Z,97.52
2022-12-12T21:51:04.109Z,97.18
2022-12-12T21:53:56.397Z,97.19
2022-12-12T21:56:49.059Z,97.12
2022-12-12T21:59:42.144Z,97.33
2022-12-12T22:02:34.695Z,97.18
2022-12-12T22:05:27.139Z,97.07
2022-12-12T22:08:19.455Z,97.40
2022-12-12T22:11:12.422Z,97.75
2022-12-12T22:14:04.170Z,97.88
2022-12-12T22:16:56.419Z,97.96
2022-12-12T22:19:48.691Z,97.50
2022-12-12T22:22:40.924Z,96.63
2022-12-12T22:25:33.198Z,96.12
2022-12-12T22:28:25.499Z,95.92
2022-12-12T22:31:17.815Z,96.20
2022-12-12T22:34:13.395Z,96.38
2022-12-12T22:37:05.362Z,96.88
2022-12-12T22:39:57.730Z,96.99
2022-12-12T22:42:50.046Z,96.99
2022-12-12T22:45:42.255Z,96.58
2022-12-12T22:48:35.712Z,96.55
2022-12-12T22:51:30.073Z,96.64
2022-12-12T22:54:21.973Z,96.74
2022-12-12T22:57:14.206Z,97.02
2022-12-12T23:00:10.590Z,97.20
2022-12-12T23:03:02.693Z,97.56
2022-12-12T23:05:54.998Z,97.87
2022-12-12T23:08:53.172Z,97.36
2022-12-12T23:11:45.881Z,96.82
2022-12-12T23:14:38.088Z,96.54
2022-12-12T23:17:30.360Z,96.43
2022-12-12T23:20:22.600Z,96.33
2022-12-12T23:23:14.828Z,96.34
2022-12-12T23:26:09.164Z,96.31
2022-12-12T23:29:01.925Z,96.41
2022-12-12T23:31:54.274Z,96.40
2022-12-12T23:34:46.690Z,96.25
2022-12-12T23:37:38.971Z,96.31
2022-12-12T23:40:31.167Z,96.53
2022-12-12T23:43:23.479Z,96.52
2022-12-12T23:46:29.593Z,96.48
2022-12-12T23:49:23.821Z,96.68
2022-12-12T23:52:15.699Z,96.79
2022-12-12T23:55:09.069Z,96.61
2022-12-12T23:58:01.423Z,96.56
